Portada
METAR-TAF:

METAR-TAF

Aeroports :

Opa-Locka Airport

Miami, Florida, Estats Units d'Amèrica

latitud: 25-54-36N, longitud: 080-16-59W, altitud: 3 m

Observació

L'informe es va fer fa 32 minuts, a les 20:53 UTC
Vent 11 kt del Nord/Nord-Oest
Temperatura 19°C
Humitat 40%
Pressió 1022 hPa
Visibilitat: 16.1 km
Cel clar

METAR: KOPF 282053Z 34011KT 10SM CLR 19/05 A3019 RMK AO2 SLP223 T01940050 56014

Hora: 16:25 (21:25 UTC)

Pronòstic

L'informe es va fer fa 27 minuts, a les 20:58 UTC
Pronòstic vàlid del 28 a les 21 UTC al 29 a les 18 UTC
Vent 12 kt del Nord/Nord-Oest amb ràfegues de 20 kt
Visibilitat: 10 km
Cel clar
A partir de les 29 a les 0000 UTC
Vent 5 kt del Oest/Nord-Oest
Visibilitat: 10 km
Cel clar
A partir de les 29 a les 1400 UTC
Vent 12 kt del Nord-Oest
Visibilitat: 10 km
Escasses núvols a una alçada de 3000 ft

TAF: KOPF 282058Z 2821/2918 33012G20KT P6SM SKC FM290000 30005KT P6SM SKC FM291400 32012KT P6SM FEW030

Observacions i pronòstics meteorològics de més de 4000 aeroports (METAR i TAF).

Les estacions disponibles són els punts grocs i vermells al mapa.

Posi el ratolí al punt desitjat per veure el nom de l'estació.

Feu clic per veure les observacions i els pronòstics meteorològics.

Per canviar el mapa: feu clic els botons verds amb una creu de color negre per apropar; al botó verd amb un guió per allunyar la imatge; o en les fletxes verdes per a mapes adjacents.


METAR-TAF: